Terminal Aerodrome Forecast
Issued by NWS North Platte, NE

Home | Current Version | Previous Version | Graphics & Text | Print | Product List | Glossary On
Versions: 1 2 3 4 5 6 7 8 9 10 11 12 13 14 15 16 17 18 19 20
543
FTUS43 KLBF 242054 AAB
TAFVTN
TAF AMD
KVTN 242054Z 2421/2518 17012KT P6SM SCT120
     FM250300 11012G19KT P6SM VCTS SCT090CB BKN250
      TEMPO 2503/2507 VRB25G45KT 3SM +TSRAGS BKN040CB
     FM250700 VRB05KT P6SM VCSH BKN050
     FM250900 VRB05KT P6SM OVC025
     FM251600 28008KT P6SM SCT035=

USA.gov is the U.S. government's official web portal to all federal, state and local government web resources and services.